createdAt,value
2019-05-01T00:02:09.836Z,10.40
2019-05-01T00:04:41.865Z,10.40
2019-05-01T00:07:11.039Z,10.50
2019-05-01T00:09:38.857Z,10.40
2019-05-01T00:12:06.392Z,10.40
2019-05-01T00:14:34.271Z,10.40
2019-05-01T00:17:01.889Z,10.30
2019-05-01T00:19:29.431Z,10.30
2019-05-01T00:21:56.968Z,10.20
2019-05-01T00:24:24.520Z,10.10
2019-05-01T00:26:52.055Z,10.00
2019-05-01T00:29:19.600Z,10.10
2019-05-01T00:31:47.430Z,10.10
2019-05-01T00:34:14.980Z,10.10
2019-05-01T00:36:42.512Z,10.10
2019-05-01T00:39:35.303Z,10.20
2019-05-01T00:42:02.837Z,10.20
2019-05-01T00:44:30.452Z,10.10
2019-05-01T00:46:58.293Z,10.10
2019-05-01T00:49:25.836Z,10.00
2019-05-01T00:51:53.376Z,9.90
2019-05-01T00:54:21.273Z,9.80
2019-05-01T00:56:53.407Z,9.80
2019-05-01T00:59:22.588Z,9.70
2019-05-01T01:01:57.501Z,9.70
2019-05-01T01:04:25.044Z,9.80
2019-05-01T01:06:52.583Z,9.80
2019-05-01T01:09:21.087Z,9.90
2019-05-01T01:11:49.141Z,9.80
2019-05-01T01:14:16.680Z,10.00
2019-05-01T01:16:44.212Z,10.00
2019-05-01T01:19:11.741Z,9.90
2019-05-01T01:21:39.309Z,9.90
2019-05-01T01:24:06.836Z,9.90
2019-05-01T01:26:34.705Z,9.90
2019-05-01T01:29:02.409Z,10.00
2019-05-01T01:31:29.953Z,10.10
2019-05-01T01:33:57.484Z,10.00
2019-05-01T01:36:25.019Z,9.90
2019-05-01T01:38:52.548Z,9.80
2019-05-01T01:41:20.088Z,9.50
2019-05-01T01:43:49.264Z,9.60
2019-05-01T01:46:21.100Z,9.60
2019-05-01T01:48:48.627Z,9.50
2019-05-01T01:51:16.441Z,9.50
2019-05-01T01:53:43.980Z,9.40
2019-05-01T01:56:11.528Z,9.20
2019-05-01T01:58:39.060Z,9.00
2019-05-01T02:01:09.533Z,9.20
2019-05-01T02:03:39.257Z,9.20
2019-05-01T02:06:06.804Z,9.20
2019-05-01T02:08:34.327Z,9.10
2019-05-01T02:11:01.874Z,9.10
2019-05-01T02:13:29.409Z,9.10
2019-05-01T02:15:57.262Z,8.80
2019-05-01T02:18:24.838Z,8.70
2019-05-01T02:20:52.684Z,8.90
2019-05-01T02:23:20.216Z,9.00
2019-05-01T02:25:47.760Z,9.00
2019-05-01T02:28:29.496Z,9.10
2019-05-01T02:31:01.721Z,9.10
2019-05-01T02:33:29.253Z,9.00
2019-05-01T02:35:56.797Z,9.00
2019-05-01T02:38:24.324Z,8.90
2019-05-01T02:40:54.930Z,8.90
2019-05-01T02:43:22.462Z,9.00
2019-05-01T02:45:51.633Z,9.10
2019-05-01T02:48:19.165Z,9.00
2019-05-01T02:50:47.777Z,9.00
2019-05-01T02:53:15.310Z,9.00
2019-05-01T02:55:44.766Z,9.10
2019-05-01T02:58:12.297Z,9.10
2019-05-01T03:00:39.828Z,9.00
2019-05-01T03:03:07.391Z,9.00
2019-05-01T03:05:34.916Z,9.00
2019-05-01T03:08:02.482Z,9.10
2019-05-01T03:10:30.012Z,8.90
2019-05-01T03:12:57.549Z,8.90
2019-05-01T03:15:25.416Z,8.90
2019-05-01T03:17:54.591Z,9.20
2019-05-01T03:20:30.568Z,9.10
2019-05-01T03:23:17.789Z,9.00
2019-05-01T03:25:45.325Z,8.90
2019-05-01T03:28:12.874Z,8.80
2019-05-01T03:30:40.494Z,8.80
2019-05-01T03:33:08.343Z,8.70
2019-05-01T03:35:35.881Z,8.70
2019-05-01T03:38:03.419Z,8.60
2019-05-01T03:40:50.365Z,8.60
2019-05-01T03:43:18.156Z,8.60
2019-05-01T03:45:45.670Z,8.60
2019-05-01T03:48:13.218Z,8.60
2019-05-01T03:50:41.022Z,8.50
2019-05-01T03:53:08.569Z,8.30
2019-05-01T03:55:36.462Z,8.40
2019-05-01T03:58:04.180Z,8.20
2019-05-01T04:00:39.524Z,8.30
2019-05-01T04:03:17.636Z,8.40
2019-05-01T04:05:45.249Z,8.20
2019-05-01T04:08:13.089Z,8.20
2019-05-01T04:10:40.630Z,8.10
2019-05-01T04:13:08.172Z,8.00
2019-05-01T04:15:35.704Z,8.10
2019-05-01T04:18:04.885Z,8.10
2019-05-01T04:20:32.408Z,8.00
2019-05-01T04:22:59.966Z,8.00
2019-05-01T04:25:27.514Z,8.10
2019-05-01T04:27:58.679Z,8.10
2019-05-01T04:30:33.349Z,8.10
2019-05-01T04:33:02.538Z,8.10
2019-05-01T04:35:48.285Z,8.00
2019-05-01T04:38:15.815Z,8.00
2019-05-01T04:40:43.345Z,7.90
2019-05-01T04:43:10.885Z,7.80
2019-05-01T04:45:38.444Z,7.70
2019-05-01T04:48:05.989Z,7.80
2019-05-01T04:50:33.857Z,7.90
2019-05-01T04:53:01.401Z,7.80
2019-05-01T04:55:28.934Z,7.90
2019-05-01T04:57:56.564Z,7.90
2019-05-01T05:00:24.093Z,7.90
2019-05-01T05:03:04.067Z,7.90
2019-05-01T05:05:22.884Z,7.80
2019-05-01T05:07:50.432Z,7.80
2019-05-01T05:10:17.959Z,7.80
2019-05-01T05:12:47.152Z,7.90
2019-05-01T05:15:34.648Z,7.90
2019-05-01T05:18:02.188Z,8.00
2019-05-01T05:20:29.713Z,8.00
2019-05-01T05:22:57.835Z,8.10
2019-05-01T05:25:25.362Z,8.20
2019-05-01T05:27:52.902Z,8.30
2019-05-01T05:30:20.432Z,8.30
2019-05-01T05:32:47.997Z,8.20
2019-05-01T05:35:15.527Z,8.20
2019-05-01T05:37:57.538Z,8.10
2019-05-01T05:40:25.396Z,8.10
2019-05-01T05:42:52.928Z,8.20
2019-05-01T05:45:20.549Z,8.20
2019-05-01T05:47:48.076Z,8.30
2019-05-01T05:50:18.427Z,8.40
2019-05-01T05:52:50.560Z,8.50
2019-05-01T05:55:29.459Z,8.50
2019-05-01T05:58:02.119Z,8.50
2019-05-01T06:03:31.180Z,8.70
2019-05-01T06:08:52.897Z,8.80
2019-05-01T06:11:25.072Z,9.00
2019-05-01T06:14:13.240Z,9.10
2019-05-01T06:16:52.077Z,9.10
2019-05-01T06:19:22.835Z,9.20
2019-05-01T06:22:10.235Z,9.20
2019-05-01T06:24:42.377Z,9.30
2019-05-01T06:27:13.714Z,9.40
2019-05-01T06:29:39.356Z,9.50
2019-05-01T06:32:06.889Z,9.60
2019-05-01T06:34:34.459Z,9.60
2019-05-01T06:37:01.993Z,9.50
2019-05-01T06:39:29.543Z,9.60
2019-05-01T06:41:57.077Z,9.70
2019-05-01T06:44:44.199Z,9.80
2019-05-01T06:47:12.176Z,9.80
2019-05-01T06:49:41.371Z,10.00
2019-05-01T06:52:10.472Z,9.90
2019-05-01T06:54:38.023Z,9.90
2019-05-01T06:57:05.553Z,9.90
2019-05-01T06:59:33.868Z,10.00
2019-05-01T07:02:01.516Z,10.20
2019-05-01T07:04:32.358Z,10.10
2019-05-01T07:07:01.912Z,10.20
2019-05-01T07:09:28.501Z,10.30
2019-05-01T07:11:56.103Z,10.30
2019-05-01T07:14:23.696Z,10.30
2019-05-01T07:16:51.235Z,11.10
2019-05-01T07:19:20.404Z,12.20
2019-05-01T07:21:47.951Z,12.90
2019-05-01T07:24:15.484Z,13.70
2019-05-01T07:26:43.982Z,14.30
2019-05-01T07:29:22.996Z,14.50
2019-05-01T07:31:50.540Z,14.70
2019-05-01T07:34:21.779Z,14.80
2019-05-01T07:36:50.121Z,14.50
2019-05-01T07:39:16.932Z,14.20
2019-05-01T07:41:44.480Z,13.90
2019-05-01T07:44:22.616Z,13.70
2019-05-01T07:46:57.791Z,13.50
2019-05-01T07:49:26.960Z,13.50
2019-05-01T07:51:54.600Z,13.50
2019-05-01T07:54:22.137Z,13.60
2019-05-01T07:56:49.989Z,13.90
2019-05-01T07:59:17.563Z,13.90
2019-05-01T08:01:55.752Z,14.10
2019-05-01T08:04:36.010Z,14.30
2019-05-01T08:06:57.102Z,14.30
2019-05-01T08:09:21.820Z,14.60
2019-05-01T08:11:49.423Z,14.80
2019-05-01T08:14:18.609Z,15.10
2019-05-01T08:16:46.384Z,15.30
2019-05-01T08:19:21.299Z,15.50
2019-05-01T08:21:56.904Z,15.60
2019-05-01T08:24:24.426Z,15.80
2019-05-01T08:26:51.954Z,15.80
2019-05-01T08:29:42.066Z,16.00
2019-05-01T08:32:24.433Z,16.30
2019-05-01T08:34:55.681Z,16.20
2019-05-01T08:37:23.594Z,16.40
2019-05-01T08:39:51.636Z,16.50
2019-05-01T08:42:19.185Z,17.20
2019-05-01T08:45:05.100Z,17.70
2019-05-01T08:47:34.313Z,18.00
2019-05-01T08:50:06.168Z,18.20
2019-05-01T08:52:33.727Z,18.40
2019-05-01T08:55:04.321Z,18.50
2019-05-01T08:57:34.520Z,18.10
2019-05-01T09:00:01.527Z,18.30
2019-05-01T09:02:29.196Z,18.50
2019-05-01T09:05:02.356Z,18.70
2019-05-01T09:07:26.100Z,18.40
2019-05-01T09:09:53.976Z,18.90
2019-05-01T09:12:21.524Z,19.30
2019-05-01T09:14:51.222Z,19.20
2019-05-01T09:17:19.008Z,19.50
2019-05-01T09:19:46.588Z,19.40
2019-05-01T09:22:14.373Z,19.40
2019-05-01T09:24:41.904Z,19.40
2019-05-01T09:27:11.088Z,19.30
2019-05-01T09:29:40.291Z,19.30
2019-05-01T09:32:10.229Z,19.00
2019-05-01T09:34:37.093Z,19.20
2019-05-01T09:37:04.647Z,19.50
2019-05-01T09:39:32.856Z,19.40
2019-05-01T09:42:00.400Z,19.50
2019-05-01T09:44:27.933Z,19.60
2019-05-01T09:46:55.479Z,19.40
2019-05-01T09:49:23.104Z,19.70
2019-05-01T09:52:08.816Z,19.60
2019-05-01T09:54:49.966Z,19.80
2019-05-01T09:57:17.520Z,20.00
2019-05-01T09:59:45.045Z,20.00
2019-05-01T10:02:13.680Z,20.10
2019-05-01T10:04:41.557Z,19.70
2019-05-01T10:07:09.660Z,20.00
2019-05-01T10:09:37.436Z,20.40
2019-05-01T10:12:04.985Z,20.80
2019-05-01T10:14:36.355Z,21.10
2019-05-01T10:17:01.829Z,21.20
2019-05-01T10:19:29.384Z,21.20
2019-05-01T10:21:57.922Z,21.20
2019-05-01T10:24:26.189Z,21.00
2019-05-01T10:27:00.095Z,20.50
2019-05-01T10:29:45.716Z,20.40
2019-05-01T10:32:21.633Z,20.50
2019-05-01T10:34:48.552Z,20.50
2019-05-01T10:37:16.080Z,20.60
2019-05-01T10:39:43.640Z,20.70
2019-05-01T10:42:11.177Z,20.80
2019-05-01T10:44:39.065Z,20.60
2019-05-01T10:47:06.662Z,20.40
2019-05-01T10:49:34.224Z,20.60
2019-05-01T10:52:13.617Z,20.90
2019-05-01T10:54:31.040Z,20.90
2019-05-01T10:56:58.781Z,20.90
2019-05-01T10:59:28.109Z,21.00
2019-05-01T11:01:57.288Z,21.00
2019-05-01T11:04:24.840Z,21.00
2019-05-01T11:06:52.376Z,21.10
2019-05-01T11:09:19.930Z,21.20
2019-05-01T11:11:47.469Z,21.60
2019-05-01T11:14:15.020Z,21.30
2019-05-01T11:16:42.590Z,21.00
2019-05-01T11:19:10.152Z,20.80
2019-05-01T11:21:37.693Z,21.10
2019-05-01T11:24:05.280Z,21.20
2019-05-01T11:26:33.108Z,21.20
2019-05-01T11:29:00.684Z,21.30
2019-05-01T11:31:30.173Z,21.50
2019-05-01T11:33:59.345Z,21.50
2019-05-01T11:36:34.612Z,21.70
2019-05-01T11:39:03.789Z,21.40
2019-05-01T11:41:32.996Z,21.50
2019-05-01T11:44:00.532Z,21.50
2019-05-01T11:46:28.089Z,21.40
2019-05-01T11:48:55.646Z,21.40
2019-05-01T11:51:23.553Z,21.40
2019-05-01T11:53:51.085Z,21.30
2019-05-01T11:56:18.636Z,21.00
2019-05-01T11:58:46.279Z,21.00
2019-05-01T12:01:15.958Z,21.40
2019-05-01T12:03:43.481Z,21.50
2019-05-01T12:06:22.428Z,21.50
2019-05-01T12:08:40.397Z,21.50
2019-05-01T12:11:09.220Z,21.30
2019-05-01T12:13:43.505Z,21.20
2019-05-01T12:16:19.997Z,21.20
2019-05-01T12:18:47.549Z,21.10
2019-05-01T12:21:15.195Z,21.00
2019-05-01T12:23:42.736Z,21.20
2019-05-01T12:26:10.280Z,21.20
2019-05-01T12:28:37.816Z,21.60
2019-05-01T12:31:05.393Z,21.70
2019-05-01T12:33:32.984Z,21.70
2019-05-01T12:36:01.824Z,21.70
2019-05-01T12:38:29.362Z,21.80
2019-05-01T12:41:14.830Z,21.90
2019-05-01T12:43:42.364Z,21.20
2019-05-01T12:46:11.873Z,21.30
2019-05-01T12:48:39.413Z,21.60
2019-05-01T12:51:07.128Z,21.70
2019-05-01T12:53:36.308Z,21.60
2019-05-01T12:56:08.437Z,21.60
2019-05-01T12:58:36.941Z,21.40
2019-05-01T13:01:04.478Z,21.30
2019-05-01T13:03:32.009Z,21.40
2019-05-01T13:05:59.603Z,21.40
2019-05-01T13:08:27.136Z,21.40
2019-05-01T13:10:54.686Z,21.70
2019-05-01T13:13:22.229Z,21.70
2019-05-01T13:15:49.784Z,21.80
2019-05-01T13:18:17.597Z,21.40
2019-05-01T13:20:45.141Z,21.50
2019-05-01T13:23:12.684Z,21.40
2019-05-01T13:25:40.268Z,21.20
2019-05-01T13:28:14.896Z,21.20
2019-05-01T13:30:50.057Z,21.20
2019-05-01T13:33:17.630Z,21.10
2019-05-01T13:35:45.152Z,21.20
2019-05-01T13:38:12.718Z,21.30
2019-05-01T13:40:40.253Z,21.30
2019-05-01T13:43:07.873Z,21.40
2019-05-01T13:45:35.408Z,21.40
2019-05-01T13:48:02.997Z,21.30
2019-05-01T13:50:30.825Z,21.40
2019-05-01T13:52:58.421Z,21.40
2019-05-01T13:55:26.256Z,21.50
2019-05-01T13:57:53.971Z,21.20
2019-05-01T14:00:21.776Z,21.20
2019-05-01T14:02:49.352Z,21.30
2019-05-01T14:05:16.897Z,21.10
2019-05-01T14:07:44.464Z,21.20
2019-05-01T14:10:12.006Z,21.00
2019-05-01T14:12:39.548Z,21.10
2019-05-01T14:15:07.553Z,21.30
2019-05-01T14:17:35.122Z,21.50
2019-05-01T14:20:04.471Z,21.50
2019-05-01T14:22:45.886Z,21.60
2019-05-01T14:25:16.159Z,21.50
2019-05-01T14:27:43.760Z,21.40
2019-05-01T14:30:11.300Z,21.40
2019-05-01T14:32:38.864Z,21.60
2019-05-01T14:35:06.968Z,21.60
2019-05-01T14:37:35.369Z,21.70
2019-05-01T14:40:04.105Z,21.50
2019-05-01T14:42:31.656Z,21.40
2019-05-01T14:44:59.460Z,21.50
2019-05-01T14:47:27.041Z,21.50
2019-05-01T14:49:54.844Z,21.70
2019-05-01T14:52:22.412Z,21.70
2019-05-01T14:54:50.053Z,21.70
2019-05-01T14:57:17.581Z,21.60
2019-05-01T14:59:45.433Z,21.70
2019-05-01T15:02:12.969Z,21.60
2019-05-01T15:04:40.517Z,21.60
2019-05-01T15:07:11.023Z,21.40
2019-05-01T15:09:37.432Z,21.50
2019-05-01T15:12:06.608Z,21.50
2019-05-01T15:14:47.648Z,21.50
2019-05-01T15:17:22.793Z,21.30
2019-05-01T15:19:51.980Z,21.30
2019-05-01T15:22:19.537Z,21.30
2019-05-01T15:24:47.177Z,21.30
2019-05-01T15:27:14.712Z,21.10
2019-05-01T15:29:42.256Z,21.20
2019-05-01T15:32:09.793Z,21.20
2019-05-01T15:34:37.344Z,21.20
2019-05-01T15:37:04.885Z,21.20
2019-05-01T15:39:34.076Z,21.10
2019-05-01T15:42:05.943Z,21.20
2019-05-01T15:44:35.131Z,21.10
2019-05-01T15:47:02.656Z,21.00
2019-05-01T15:49:30.206Z,20.90
2019-05-01T15:51:57.739Z,20.70
2019-05-01T15:54:25.650Z,20.60
2019-05-01T15:56:53.188Z,20.70
2019-05-01T15:59:20.740Z,20.50
2019-05-01T16:01:48.272Z,20.50
2019-05-01T16:04:15.822Z,20.50
2019-05-01T16:06:43.353Z,20.50
2019-05-01T16:09:10.906Z,20.40
2019-05-01T16:11:58.156Z,20.40
2019-05-01T16:14:25.709Z,20.40
2019-05-01T16:16:53.245Z,20.40
2019-05-01T16:19:20.812Z,20.30
2019-05-01T16:21:48.668Z,20.40
2019-05-01T16:24:16.212Z,20.40
2019-05-01T16:26:43.744Z,20.40
2019-05-01T16:29:11.548Z,20.40
2019-05-01T16:31:39.088Z,20.40
2019-05-01T16:34:06.632Z,20.40
2019-05-01T16:36:34.250Z,20.40
2019-05-01T16:39:12.652Z,20.30
2019-05-01T16:41:41.442Z,20.30
2019-05-01T16:44:09.057Z,20.30
2019-05-01T16:46:37.060Z,20.30
2019-05-01T16:49:04.655Z,20.20
2019-05-01T16:51:32.488Z,20.20
2019-05-01T16:54:00.193Z,20.10
2019-05-01T16:56:27.740Z,20.20
2019-05-01T16:58:55.574Z,20.10
2019-05-01T17:01:41.424Z,20.00
2019-05-01T17:04:10.620Z,20.00
2019-05-01T17:06:45.804Z,20.00
2019-05-01T17:09:31.793Z,19.80
2019-05-01T17:11:59.332Z,19.80
2019-05-01T17:14:27.221Z,19.70
2019-05-01T17:16:55.002Z,19.70
2019-05-01T17:19:22.849Z,19.60
2019-05-01T17:21:50.384Z,19.60
2019-05-01T17:24:17.931Z,19.60
2019-05-01T17:26:45.512Z,19.60
2019-05-01T17:29:13.056Z,19.50
2019-05-01T17:31:40.587Z,19.50
2019-05-01T17:34:09.717Z,19.40
2019-05-01T17:36:37.628Z,19.40
2019-05-01T17:39:05.343Z,19.30
2019-05-01T17:41:32.880Z,19.30
2019-05-01T17:44:00.530Z,19.30
2019-05-01T17:46:28.066Z,19.30
2019-05-01T17:48:55.612Z,19.30
2019-05-01T17:51:23.150Z,19.20
2019-05-01T17:53:50.692Z,19.20
2019-05-01T17:56:23.534Z,19.10
2019-05-01T17:58:47.506Z,19.10
2019-05-01T18:01:34.315Z,19.00
2019-05-01T18:04:04.012Z,19.00
2019-05-01T18:06:41.891Z,18.90
2019-05-01T18:09:13.666Z,18.90
2019-05-01T18:11:37.720Z,18.80
2019-05-01T18:14:05.961Z,18.70
2019-05-01T18:16:34.105Z,18.70
2019-05-01T18:19:01.648Z,18.60
2019-05-01T18:21:33.035Z,18.50
2019-05-01T18:24:11.200Z,18.50
2019-05-01T18:26:52.678Z,18.40
2019-05-01T18:29:21.868Z,18.40
2019-05-01T18:31:49.481Z,18.20
2019-05-01T18:34:17.057Z,18.20
2019-05-01T18:36:49.191Z,18.20
2019-05-01T18:39:27.468Z,18.10
2019-05-01T18:42:00.495Z,18.10
2019-05-01T18:44:28.301Z,18.00
2019-05-01T18:46:55.832Z,18.00
2019-05-01T18:49:23.408Z,17.90
2019-05-01T18:51:50.964Z,17.80
2019-05-01T18:54:18.537Z,17.70
2019-05-01T18:56:46.076Z,17.70
2019-05-01T18:59:13.641Z,17.70
2019-05-01T19:01:43.887Z,17.60
2019-05-01T19:04:10.525Z,17.60
2019-05-01T19:06:41.339Z,17.50
2019-05-01T19:09:14.739Z,17.50
2019-05-01T19:11:37.090Z,17.50
2019-05-01T19:14:04.767Z,17.40
2019-05-01T19:16:32.357Z,17.40
2019-05-01T19:18:59.892Z,17.40
2019-05-01T19:21:29.425Z,17.30
2019-05-01T19:24:00.487Z,17.30
2019-05-01T19:26:26.415Z,17.30
2019-05-01T19:28:54.230Z,17.30
2019-05-01T19:31:21.813Z,17.30
2019-05-01T19:33:49.352Z,17.10
2019-05-01T19:36:16.912Z,17.10
2019-05-01T19:38:44.457Z,17.10
2019-05-01T19:41:14.309Z,16.90
2019-05-01T19:43:42.166Z,17.00
2019-05-01T19:46:09.938Z,16.90
2019-05-01T19:48:37.533Z,16.90
2019-05-01T19:51:05.333Z,16.80
2019-05-01T19:53:32.860Z,16.80
2019-05-01T19:56:00.405Z,16.70
2019-05-01T19:58:28.249Z,16.70
2019-05-01T20:00:56.567Z,16.70
2019-05-01T20:03:24.104Z,16.70
2019-05-01T20:05:51.657Z,16.70
2019-05-01T20:08:19.518Z,16.60
2019-05-01T20:10:47.100Z,16.60
2019-05-01T20:13:14.681Z,16.50
2019-05-01T20:15:42.229Z,16.50
2019-05-01T20:18:09.765Z,16.40
2019-05-01T20:20:37.314Z,16.30
2019-05-01T20:23:05.221Z,16.10
2019-05-01T20:25:32.768Z,16.00
2019-05-01T20:28:00.307Z,16.00
2019-05-01T20:30:27.859Z,15.90
2019-05-01T20:32:58.226Z,15.90
2019-05-01T20:35:28.443Z,15.90
2019-05-01T20:37:53.923Z,15.70
2019-05-01T20:40:21.478Z,15.60
2019-05-01T20:42:49.009Z,15.50
2019-05-01T20:45:18.190Z,15.40
2019-05-01T20:47:47.995Z,15.40
2019-05-01T20:50:15.704Z,15.30
2019-05-01T20:52:43.248Z,15.30
2019-05-01T20:55:10.788Z,15.40
2019-05-01T20:57:45.969Z,15.30
2019-05-01T21:00:16.576Z,15.40
2019-05-01T21:02:44.565Z,15.40
2019-05-01T21:05:13.883Z,15.40
2019-05-01T21:07:43.068Z,15.30
2019-05-01T21:10:23.883Z,15.20
2019-05-01T21:12:39.876Z,15.30
2019-05-01T21:15:07.410Z,15.40
2019-05-01T21:17:34.958Z,15.50
2019-05-01T21:20:03.780Z,15.30
2019-05-01T21:22:33.291Z,15.30
2019-05-01T21:25:00.772Z,15.20
2019-05-01T21:27:28.320Z,15.20
2019-05-01T21:29:55.852Z,15.10
2019-05-01T21:32:27.436Z,15.00
2019-05-01T21:34:53.715Z,15.10
2019-05-01T21:37:21.383Z,15.00
2019-05-01T21:39:48.916Z,14.90
2019-05-01T21:42:16.784Z,14.90
2019-05-01T21:44:44.649Z,14.90
2019-05-01T21:47:13.894Z,14.80
2019-05-01T21:49:42.968Z,14.70
2019-05-01T21:52:10.624Z,14.60
2019-05-01T21:54:38.472Z,14.50
2019-05-01T21:57:06.023Z,14.40
2019-05-01T21:59:35.358Z,14.40
2019-05-01T22:02:05.312Z,14.30
2019-05-01T22:04:33.201Z,14.10
2019-05-01T22:07:00.790Z,14.20
2019-05-01T22:09:29.960Z,14.10
2019-05-01T22:11:57.504Z,14.10
2019-05-01T22:14:38.659Z,14.10
2019-05-01T22:17:07.848Z,14.20
2019-05-01T22:19:35.384Z,14.30
2019-05-01T22:22:07.543Z,14.40
2019-05-01T22:24:51.576Z,14.40
2019-05-01T22:27:20.764Z,14.30
2019-05-01T22:29:52.885Z,14.10
2019-05-01T22:32:22.060Z,13.80
2019-05-01T22:34:51.240Z,13.90
2019-05-01T22:37:18.788Z,14.00
2019-05-01T22:39:47.968Z,13.90
2019-05-01T22:42:15.693Z,13.90
2019-05-01T22:44:43.219Z,13.90
2019-05-01T22:47:15.137Z,13.80
2019-05-01T22:49:40.020Z,13.80
2019-05-01T22:52:07.568Z,13.70
2019-05-01T22:54:35.103Z,13.60
2019-05-01T22:57:02.656Z,13.60
2019-05-01T22:59:30.193Z,13.50
2019-05-01T23:01:59.724Z,13.40
2019-05-01T23:04:27.268Z,13.50
2019-05-01T23:06:54.800Z,13.50
2019-05-01T23:09:23.453Z,13.50
2019-05-01T23:11:52.381Z,13.50
2019-05-01T23:14:19.940Z,13.60
2019-05-01T23:16:51.835Z,13.50
2019-05-01T23:19:22.786Z,13.50
2019-05-01T23:21:50.772Z,13.30
2019-05-01T23:24:17.944Z,13.20
2019-05-01T23:26:48.058Z,13.20
2019-05-01T23:29:15.039Z,13.30
2019-05-01T23:31:42.571Z,13.30
2019-05-01T23:34:10.116Z,13.20
2019-05-01T23:36:37.675Z,13.20
2019-05-01T23:39:05.588Z,13.10
2019-05-01T23:41:45.267Z,13.10
2019-05-01T23:44:03.581Z,13.10
2019-05-01T23:46:31.923Z,13.10
2019-05-01T23:48:59.465Z,13.10
2019-05-01T23:51:28.617Z,13.10
2019-05-01T23:53:56.273Z,13.00
2019-05-01T23:56:23.807Z,12.80
2019-05-01T23:58:51.439Z,12.80
